Apostle Islands National Lak, Wisconsin
Current Conditions -  °F | °C
As of 1:53 AM on Monday 24 Nov 2014 (Local Time) from KASX Reporting Station
Haze Haze  
Wind Chill:   Ceiling: 500
Heat Index:   Visibility: 3mi
Dew Point:   Wind: 5mph
Humidity: 97%   Direction: 300°WNW
Pressure: 29.21"   Gusts: NA
Location:  46.8614°N, 90.9101°W
Report Text: KASX 240753Z AUTO 30004KT 3SM BR OVC005 02/02 A2921 RMK AO2 UPE53RAB25E37 SLP898 P0006 T00220017
Loading
Personal Weather Stations






























Interactive Weather Map New forecast layout! Learn more

10-Day Weather Forecast

Advertisements
Track Severe Weather on mobile